首页
METAR-TAF:

METAR-TAF

机场 :

馬塔烏圖機場

瓦利斯, 法国

纬度: 13-14S, 经度: 176-10W, 海拔: 23米

METAR: 丢失

时间: 15:39 (03:39 UTC)

预报

该预报发布于4小时和39分钟前的23:00 UTC
预报有效从20日的 00点(UTC)到 20日的 24点(UTC)
风速10节,风向东南
能见度10公里或以上
散云层高于2000英尺

TAF: NLWW 192300Z 2000/2024 14010KT 9999 SCT020

超过4000个机场的气象观测和天气预报(METAR&TAF报告)。

可查询的气象台以黄色和红色小点在地图上表示。

将鼠标移到小点上方,可查看气象台名称。

然后点击查看天气观测和预报。

如需切换地图:点击带黑十字的绿色按钮放大地图;点击带横线的绿色按钮缩小地图;或者点击绿色箭头查看邻近地区的地图。


METAR-TAF: